| Date | Time | Temp. (oF) | Dew Point (oF) | Rel. Hum. (%) | Press. (in.) | Wind Dir. | Wind Speed (mph) | Hourly Rainfall (in.) |
|
|---|---|---|---|---|---|---|---|---|---|
| 1 | 06/30 | 00:00 | 67 | 56 | 69 | 29.85 | SW | 0 | 0.00 |
| 2 | 06/29 | 23:00 | 69 | 57 | 67 | 29.85 | SSW | 0 | 0.00 |
| 3 | 06/29 | 22:00 | 70 | 57 | 64 | 29.85 | SSW | 0 | 0.00 |
| 4 | 06/29 | 21:00 | 72 | 56 | 58 | 29.84 | SW | 0 | 0.00 |
| 5 | 06/29 | 20:00 | 76 | 56 | 52 | 29.82 | SW | 3 | 0.00 |
| 6 | 06/29 | 19:00 | 78 | 55 | 47 | 29.81 | SW | 5 | 0.00 |
| 7 | 06/29 | 18:00 | 78 | 54 | 45 | 29.81 | SW | 6 | 0.00 |
| 8 | 06/29 | 17:00 | 79 | 55 | 45 | 29.82 | SW | 6 | 0.00 |
| 9 | 06/29 | 16:00 | 78 | 54 | 44 | 29.84 | SW | 3 | 0.00 |
| 10 | 06/29 | 15:00 | 79 | 56 | 46 | 29.85 | W | 3 | 0.00 |
| 11 | 06/29 | 14:00 | 76 | 55 | 50 | 29.85 | SW | 7 | 0.00 |
| 12 | 06/29 | 13:00 | 76 | 56 | 52 | 29.86 | N | 2 | 0.00 |
| 13 | 06/29 | 12:00 | 72 | 53 | 52 | 29.87 | WNW | 3 | 0.00 |
| 14 | 06/29 | 11:00 | 70 | 53 | 56 | 29.87 | WSW | 6 | 0.00 |
| 15 | 06/29 | 10:00 | 68 | 52 | 58 | 29.88 | NE | 9 | 0.00 |
| 16 | 06/29 | 09:00 | 66 | 54 | 66 | 29.88 | NE | 3 | 0.00 |
| 17 | 06/29 | 08:00 | 62 | 55 | 79 | 29.87 | W | 2 | 0.00 |
| 18 | 06/29 | 07:00 | 57 | 53 | 87 | 29.86 | WSW | 0 | 0.00 |
| 19 | 06/29 | 06:00 | 55 | 51 | 87 | 29.83 | WSW | 0 | 0.00 |
| 20 | 06/29 | 05:00 | 56 | 51 | 86 | 29.81 | S | 0 | 0.00 |
| 21 | 06/29 | 04:00 | 57 | 52 | 85 | 29.80 | W | 0 | 0.00 |
| 22 | 06/29 | 03:00 | 58 | 52 | 82 | 29.78 | SSW | 0 | 0.00 |
| 23 | 06/29 | 02:00 | 59 | 53 | 81 | 29.77 | WSW | 0 | 0.00 |
| 24 | 06/29 | 01:00 | 61 | 53 | 77 | 29.76 | SW | 0 | 0.00 |